aviador You're here:

KMIW Decoded Metar

MARSHALLTOWN in IA, USA
Report Time2018-06-24 21:53:00
UTC Time2018-06-24 22:48:08
Flight Rules vfr VFR
Wind140° at 10 kt
W.Decomp.*RWY 13: 9.9 kt HW 1.6 kt RCW
RWY 18: 7.5 kt HW 6.6 kt LCW
W.Rank140° ranks 4
Current wind is above 140° avg. (8.8)
Visibility9999 m
Phenomena:N/A
Clouds:N/A
Expected CloudBase > 2,000 ft AGL from Temp-Dew spread
CeilingNone
Temp26°C (ISA +13)
Dew Point21°C (74% RH)
QNH1014 hPa
Density Alt2,762 ft
Elevation971 ft
Report Wrong Elevation
Raw Report
KMIW 242153Z AUTO 14010KT 10SM CLR 26/21 A2993 RMK AO2 SLP129
T02560211=

Extra information for KMIW:More info

Metar Taf Metar & Taf Last 4 Metars F.Rules Stats Wind Profile Meteogram Temp Stats Airport Information Weather charts Add Link Nearby VenuesMetar ALERT Operation Metar Decoded Social comments

AIRNAV info for KMIW